TimeCST,TemperatureF,Dew PointF,Humidity,Sea Level PressureIn,VisibilityMPH,Wind Direction,Wind SpeedMPH,Gust SpeedMPH,PrecipitationIn,Events,Conditions,WindDirDegrees,DateUTC
12:15 AM,23.0,10.4,59,30.30,10.0,East,10.4,-,N/A,,Clear,80,2012-12-05 06:15:00
12:35 AM,21.2,12.2,68,30.29,10.0,East,11.5,-,N/A,,Clear,80,2012-12-05 06:35:00
12:55 AM,21.2,12.2,68,30.29,10.0,ESE,8.1,-,N/A,,Clear,110,2012-12-05 06:55:00
1:15 AM,21.2,12.2,68,30.29,10.0,ESE,9.2,-,N/A,,Clear,110,2012-12-05 07:15:00
1:55 AM,21.2,12.2,68,30.28,10.0,East,11.5,-,N/A,,Clear,100,2012-12-05 07:55:00
2:15 AM,21.2,12.2,68,30.27,10.0,East,12.7,-,N/A,,Clear,100,2012-12-05 08:15:00
2:35 AM,19.4,12.2,74,30.27,10.0,East,11.5,-,N/A,,Clear,100,2012-12-05 08:35:00
2:55 AM,19.4,12.2,74,30.27,10.0,East,12.7,-,N/A,,Clear,100,2012-12-05 08:55:00
3:15 AM,19.4,12.2,74,30.25,10.0,East,15.0,-,N/A,,Clear,100,2012-12-05 09:15:00
3:35 AM,21.2,12.2,68,30.24,10.0,East,13.8,-,N/A,,Clear,100,2012-12-05 09:35:00
3:55 AM,19.4,12.2,74,30.22,10.0,ESE,15.0,-,N/A,,Clear,110,2012-12-05 09:55:00
4:15 AM,19.4,12.2,74,30.22,10.0,ESE,12.7,-,N/A,,Clear,110,2012-12-05 10:15:00
4:35 AM,19.4,12.2,74,30.22,10.0,ESE,9.2,-,N/A,,Clear,120,2012-12-05 10:35:00
4:55 AM,21.2,12.2,68,30.21,10.0,ESE,12.7,19.6,N/A,,Clear,120,2012-12-05 10:55:00
5:15 AM,21.2,12.2,68,30.20,10.0,SE,16.1,-,N/A,,Clear,130,2012-12-05 11:15:00
5:35 AM,21.2,12.2,68,30.19,10.0,SE,16.1,21.9,N/A,,Clear,140,2012-12-05 11:35:00
5:55 AM,21.2,12.2,68,30.18,10.0,SE,15.0,-,N/A,,Clear,130,2012-12-05 11:55:00
6:15 AM,21.2,12.2,68,30.17,10.0,SE,16.1,21.9,N/A,,Clear,140,2012-12-05 12:15:00
6:35 AM,21.2,12.2,68,30.17,10.0,SE,17.3,23.0,N/A,,Clear,140,2012-12-05 12:35:00
6:55 AM,21.2,12.2,68,30.15,10.0,SE,16.1,21.9,N/A,,Clear,140,2012-12-05 12:55:00
8:35 AM,24.8,15.8,69,30.10,10.0,SSE,17.3,24.2,N/A,,Clear,150,2012-12-05 14:35:00
8:55 AM,26.6,17.6,69,30.10,10.0,SSE,20.7,-,N/A,,Clear,150,2012-12-05 14:55:00
9:15 AM,28.4,15.8,59,30.09,10.0,SSE,19.6,26.5,N/A,,Clear,150,2012-12-05 15:15:00
9:35 AM,30.2,17.6,60,30.08,10.0,SSE,21.9,29.9,N/A,,Clear,160,2012-12-05 15:35:00
9:55 AM,30.2,19.4,64,30.06,10.0,SSE,21.9,31.1,N/A,,Clear,160,2012-12-05 15:55:00
10:15 AM,32.0,19.4,60,30.06,10.0,South,18.4,26.5,N/A,,Clear,170,2012-12-05 16:15:00
10:35 AM,33.8,21.2,60,30.05,10.0,South,16.1,24.2,N/A,,Clear,170,2012-12-05 16:35:00
10:55 AM,33.8,21.2,60,30.04,10.0,South,18.4,28.8,N/A,,Clear,170,2012-12-05 16:55:00
11:15 AM,35.6,21.2,56,30.01,10.0,South,16.1,28.8,N/A,,Clear,170,2012-12-05 17:15:00
11:35 AM,35.6,21.2,56,29.99,10.0,South,20.7,29.9,N/A,,Clear,170,2012-12-05 17:35:00
11:55 AM,37.4,23.0,56,29.98,10.0,South,18.4,25.3,N/A,,Clear,170,2012-12-05 17:55:00
12:15 PM,39.2,23.0,52,29.95,10.0,South,17.3,27.6,N/A,,Clear,170,2012-12-05 18:15:00
12:35 PM,41.0,23.0,49,29.95,10.0,South,23.0,31.1,N/A,,Clear,180,2012-12-05 18:35:00
1:15 PM,44.6,23.0,43,29.90,10.0,South,24.2,34.5,N/A,,Clear,170,2012-12-05 19:15:00
1:35 PM,44.6,23.0,43,29.90,10.0,South,24.2,33.4,N/A,,Clear,180,2012-12-05 19:35:00
1:55 PM,42.8,23.0,46,29.88,10.0,South,20.7,31.1,N/A,,Clear,180,2012-12-05 19:55:00
2:15 PM,44.6,24.8,46,29.86,10.0,South,18.4,25.3,N/A,,Clear,180,2012-12-05 20:15:00
2:35 PM,46.4,24.8,43,29.86,10.0,South,21.9,27.6,N/A,,Clear,180,2012-12-05 20:35:00
2:55 PM,46.4,24.8,43,29.85,10.0,South,15.0,21.9,N/A,,Clear,180,2012-12-05 20:55:00
3:15 PM,48.2,24.8,40,29.84,10.0,South,17.3,26.5,N/A,,Clear,180,2012-12-05 21:15:00
3:35 PM,48.2,23.0,37,29.83,10.0,South,19.6,28.8,N/A,,Clear,180,2012-12-05 21:35:00
3:55 PM,48.2,23.0,37,29.82,10.0,South,19.6,27.6,N/A,,Clear,170,2012-12-05 21:55:00
4:15 PM,48.2,23.0,37,29.81,10.0,South,17.3,29.9,N/A,,Clear,180,2012-12-05 22:15:00
4:35 PM,46.4,23.0,40,29.80,10.0,SSE,16.1,24.2,N/A,,Clear,160,2012-12-05 22:35:00
4:55 PM,46.4,23.0,40,29.79,10.0,South,15.0,23.0,N/A,,Clear,170,2012-12-05 22:55:00
5:15 PM,46.4,23.0,40,29.79,10.0,South,19.6,24.2,N/A,,Clear,170,2012-12-05 23:15:00
5:35 PM,46.4,24.8,43,29.79,10.0,South,19.6,25.3,N/A,,Clear,170,2012-12-05 23:35:00
5:55 PM,44.6,24.8,46,29.78,10.0,South,18.4,26.5,N/A,,Clear,170,2012-12-05 23:55:00
6:15 PM,44.6,24.8,46,29.78,10.0,South,17.3,24.2,N/A,,Clear,170,2012-12-06 00:15:00
6:35 PM,44.6,24.8,46,29.77,10.0,South,13.8,23.0,N/A,,Clear,170,2012-12-06 00:35:00
6:55 PM,44.6,26.6,49,29.76,10.0,South,16.1,20.7,N/A,,Partly Cloudy,170,2012-12-06 00:55:00
7:15 PM,44.6,26.6,49,29.76,10.0,South,17.3,25.3,N/A,,Clear,170,2012-12-06 01:15:00
7:35 PM,44.6,26.6,49,29.75,10.0,South,17.3,23.0,N/A,,Clear,170,2012-12-06 01:35:00
7:55 PM,46.4,26.6,46,29.75,10.0,South,15.0,21.9,N/A,,Clear,170,2012-12-06 01:55:00
8:15 PM,46.4,26.6,46,29.74,10.0,South,15.0,21.9,N/A,,Clear,170,2012-12-06 02:15:00
8:35 PM,46.4,26.6,46,29.74,10.0,South,13.8,20.7,N/A,,Clear,170,2012-12-06 02:35:00
8:55 PM,46.4,26.6,46,29.74,10.0,South,15.0,20.7,N/A,,Clear,180,2012-12-06 02:55:00
9:15 PM,46.4,24.8,43,29.73,10.0,South,13.8,-,N/A,,Clear,170,2012-12-06 03:15:00
9:35 PM,48.2,24.8,40,29.72,10.0,South,16.1,21.9,N/A,,Clear,180,2012-12-06 03:35:00
9:55 PM,48.2,24.8,40,29.71,10.0,South,17.3,24.2,N/A,,Clear,190,2012-12-06 03:55:00
10:15 PM,50.0,24.8,37,29.71,10.0,South,18.4,24.2,N/A,,Clear,190,2012-12-06 04:15:00
10:35 PM,48.2,24.8,40,29.71,10.0,South,16.1,24.2,N/A,,Clear,190,2012-12-06 04:35:00
10:55 PM,48.2,24.8,40,29.70,10.0,South,16.1,21.9,N/A,,Clear,190,2012-12-06 04:55:00
11:15 PM,48.2,24.8,40,29.71,10.0,SSW,15.0,23.0,N/A,,Clear,200,2012-12-06 05:15:00
11:35 PM,48.2,24.8,40,29.71,10.0,SSW,13.8,20.7,N/A,,Clear,200,2012-12-06 05:35:00
11:55 PM,48.2,23.0,37,29.71,10.0,SSW,15.0,-,N/A,,Clear,210,2012-12-06 05:55:00